Terminal Aerodrome Forecast
Issued by NWS Twin Cities, MN

Home | Current Version | Previous Version | Graphics & Text | Print | Product List | Glossary On
Versions: 1 2 3 4 5 6 7 8 9 10 11 12 13 14 15 16 17 18 19 20 21 22 23 24 25
000
FTUS43 KMPX 180333 AAA
TAFMSP
TAF AMD
KMSP 180333Z 1804/1906 34004KT P6SM BKN012 OVC110
     FM181000 33009KT P6SM SCT020 BKN150
     FM181400 33010KT P6SM SCT120
     FM182000 32014KT P6SM SCT050=

USA.gov is the U.S. government's official web portal to all federal, state and local government web resources and services.